Latest Weather Observations for Weipa

IDQ60801

Issued at 1:32 pm EST Wednesday 25 May 2016 (issued every 30 minutes, with the page automatically refreshed every 10 minutes)

About weather observations | Map of weather stations | Latest weather observations for QLD | Other Formats
Station Details ID: 027045 Name: WEIPA AERO Lat: -12.68 Lon: 141.92 Height: 17.96 m
Data from the previous 72 hours. | See also: Recent months at Weipa
Date/Time
EST
Temp
°C
App
Temp
°C
Dew
Point
Rel
Hum
%
Delta-T
°C
Wind Press
QNH
hPa
Press
MSL
hPa
Rain
since 9 am
mm
Dir
 
Spd
km/h
Gust
km/h
Spd
kts
Gust
kts
25/01:30pm 31.2 33.7 22.4 59 6.0 ENE 13 22 7 12 1011.2 - 0.0
25/01:00pm 31.5 34.0 22.5 59 6.2 E 13 22 7 12 1011.8 - 0.0
25/12:30pm 30.3 32.4 23.1 65 4.9 ESE 17 24 9 13 1012.4 - 0.0
25/12:00pm 30.8 32.5 23.0 63 5.4 E 19 32 10 17 1012.6 1012.4 0.0
25/11:30am 29.8 31.7 23.4 68 4.4 E 19 26 10 14 1013.0 - 0.0
25/11:00am 29.3 30.5 23.2 69 4.2 ESE 22 30 12 16 1013.2 - 0.0
25/10:30am 28.0 29.8 23.2 75 3.3 ESE 19 26 10 14 1013.5 - 0.0
25/10:00am 27.1 28.6 23.1 79 2.7 E 20 28 11 15 1013.4 - 0.0
25/09:30am 27.3 29.8 23.1 78 2.9 E 15 24 8 13 1013.4 - 0.0
25/09:00am 26.4 28.7 22.8 80 2.4 E 15 28 8 15 1013.1 1012.9 0.0
25/08:30am 25.2 28.0 23.0 87 1.5 ESE 13 15 7 8 1012.8 - 0.0
25/08:00am 24.6 28.5 22.9 90 1.1 SE 7 9 4 5 1012.8 - 0.0
25/07:30am 24.1 28.5 22.8 92 0.9 SSE 4 6 2 3 1012.6 - 0.0
25/07:00am 23.3 27.2 22.5 95 0.5 SE 6 9 3 5 1012.2 - 0.0
25/06:30am 23.3 27.2 22.5 95 0.5 SE 6 11 3 6 1011.8 - 0.0
25/06:00am 23.3 26.9 22.4 95 0.6 SE 7 9 4 5 1011.5 1011.3 0.0
25/05:30am 23.4 26.7 22.5 95 0.6 ESE 9 15 5 8 1011.1 - 0.0
25/05:00am 23.4 26.7 22.5 95 0.6 ESE 9 11 5 6 1011.2 - 0.0
25/04:30am 23.5 27.4 22.5 94 0.7 SE 6 9 3 5 1011.2 - 0.0
25/04:00am 23.8 27.7 22.5 92 0.9 E 6 9 3 5 1011.1 - 0.0
25/03:30am 23.8 27.5 22.6 93 0.8 SE 7 11 4 6 1011.3 - 0.0
25/03:00am 24.1 27.5 22.7 92 0.9 ESE 9 11 5 6 1011.6 1011.4 0.0
25/02:30am 24.0 28.0 22.7 92 0.9 ESE 6 7 3 4 1011.9 - 0.0
25/02:00am 24.2 28.0 22.4 90 1.2 SE 6 7 3 4 1012.3 - 0.0
25/01:30am 24.4 28.2 22.4 89 1.3 E 6 7 3 4 1012.4 - 0.0
25/01:00am 24.5 28.3 22.4 88 1.4 ESE 6 9 3 5 1012.7 - 0.0
25/12:30am 24.8 28.5 22.2 85 1.7 E 6 9 3 5 1012.8 - 0.0
25/12:00am 24.8 28.5 22.2 85 1.7 E 6 7 3 4 1012.9 1012.7 0.0
 
Date/Time
EST
Temp
°C
App
Temp
°C
Dew
Point
Rel
Hum
%
Delta-T
°C
Wind Press
QNH
hPa
Press
MSL
hPa
Rain
since 9 am
mm
Dir
 
Spd
km/h
Gust
km/h
Spd
kts
Gust
kts
24/11:30pm 24.7 28.4 22.2 86 1.7 SE 6 7 3 4 1013.5 - 0.0
24/11:00pm 25.4 29.4 22.0 81 2.3 ENE 4 6 2 3 1013.6 - 0.0
24/10:30pm 25.5 28.9 22.0 81 2.3 E 7 11 4 6 1013.4 - 0.0
24/10:00pm 26.0 29.2 21.6 76 2.9 E 7 11 4 6 1013.5 - 0.0
24/09:30pm 26.4 28.3 21.4 74 3.3 E 13 17 7 9 1013.2 - 0.0
24/09:00pm 26.4 28.4 21.6 75 3.2 E 13 19 7 10 1012.9 1012.7 0.0
24/08:30pm 26.9 28.5 21.4 72 3.7 E 15 24 8 13 1012.7 - 0.0
24/08:00pm 27.1 29.1 21.6 72 3.7 ESE 13 19 7 10 1012.6 - 0.0
24/07:30pm 27.3 29.7 22.2 73 3.4 ESE 13 17 7 9 1012.0 - 0.0
24/07:00pm 27.6 31.3 23.2 77 3.0 ESE 9 15 5 8 1011.4 - 0.0
24/06:30pm 28.0 32.1 23.2 75 3.3 SE 7 9 4 5 1010.9 - 0.0
24/06:00pm 28.6 32.8 23.1 72 3.8 E 6 9 3 5 1010.3 1010.1 0.0
24/05:30pm 29.2 31.7 22.5 67 4.6 E 13 19 7 10 1009.7 - 0.0
24/05:00pm 29.4 31.9 22.5 66 4.7 E 13 20 7 11 1009.5 - 0.0
24/04:30pm 29.9 32.6 22.9 66 4.8 E 13 20 7 11 1009.3 - 0.0
24/04:00pm 30.2 32.0 22.6 63 5.2 E 17 22 9 12 1009.5 - 0.0
24/03:30pm 30.0 32.9 22.5 64 5.1 E 11 17 6 9 1009.9 - 0.0
24/03:00pm 30.8 32.0 22.2 60 5.8 E 19 26 10 14 1010.0 1009.8 0.0
24/02:30pm 30.4 31.3 21.5 59 6.0 ENE 19 26 10 14 1010.3 - 0.0
24/02:00pm 30.5 31.8 22.4 62 5.5 E 19 26 10 14 1010.4 - 0.0
24/01:30pm 30.3 31.7 22.6 63 5.3 E 19 26 10 14 1011.1 - 0.0
24/01:00pm 30.9 31.8 22.6 61 5.7 E 22 32 12 17 1011.7 - 0.0
24/12:30pm 30.3 31.3 22.9 64 5.1 E 22 32 12 17 1012.2 - 0.0
24/12:00pm 30.1 31.4 22.6 64 5.1 E 20 28 11 15 1012.5 1012.3 0.0
24/11:30am 29.9 31.7 23.2 67 4.6 E 19 28 10 15 1013.1 - 0.0
24/11:00am 29.2 30.6 22.8 68 4.4 E 20 33 11 18 1013.7 - 0.0
24/10:30am 28.6 30.4 23.2 72 3.7 E 19 28 10 15 1013.8 - 0.0
24/10:00am 27.5 29.3 23.2 77 2.9 E 19 26 10 14 1013.6 - 0.0
24/09:30am 26.8 29.8 23.4 81 2.3 E 13 20 7 11 1013.6 - 0.0
24/09:00am 25.4 28.3 23.1 87 1.6 E 13 17 7 9 1013.4 1013.2 3.6
24/08:30am 24.7 28.0 23.2 91 1.0 E 11 20 6 11 1013.0 - 3.6
24/08:00am 24.2 28.4 23.1 94 0.7 E 6 9 3 5 1012.8 - 3.6
24/07:30am 23.8 27.9 22.9 95 0.6 ESE 6 9 3 5 1012.4 - 3.6
24/07:00am 23.7 27.5 22.8 95 0.6 E 7 11 4 6 1012.1 - 3.6
24/06:30am 23.8 27.3 22.8 94 0.7 ESE 9 13 5 7 1012.0 - 3.6
24/06:00am 23.9 27.4 22.9 94 0.7 ESE 9 13 5 7 1012.0 1011.8 3.6
24/05:33am 23.9 26.9 22.7 93 0.8 E 11 15 6 8 1011.6 - 3.6
24/05:30am 23.9 27.0 22.8 94 0.7 E 11 15 6 8 1011.5 - 3.6
24/05:00am 23.8 27.6 22.8 94 0.7 SE 7 11 4 6 1011.5 - 3.6
24/04:54am 23.7 27.5 22.8 95 0.6 SE 7 11 4 6 1011.3 - 3.6
24/04:30am 23.5 25.4 22.8 96 0.5 ESE 17 22 9 12 1011.0 - 3.6
24/04:00am 23.4 26.5 22.8 96 0.4 ESE 11 15 6 8 1011.2 - 3.6
24/03:30am 23.3 27.1 22.8 97 0.3 ESE 7 9 4 5 1011.4 - 3.6
24/03:00am 23.3 27.3 22.8 97 0.3 SE 6 7 3 4 1011.6 1011.4 3.6
24/02:30am 23.3 27.4 22.9 98 0.3 SE 6 7 3 4 1011.9 - 3.6
24/02:00am 23.3 27.3 22.8 97 0.3 ESE 6 6 3 3 1012.1 - 3.6
24/01:30am 23.4 27.9 22.9 97 0.3 SE 4 6 2 3 1012.2 - 3.6
24/01:00am 23.6 28.1 22.9 96 0.5 E 4 6 2 3 1012.3 - 3.6
24/12:30am 23.7 27.6 23.0 96 0.5 ESE 7 9 4 5 1012.3 - 3.6
24/12:00am 23.9 27.9 23.1 95 0.5 ESE 7 9 4 5 1012.4 1012.2 3.6
 
Date/Time
EST
Temp
°C
App
Temp
°C
Dew
Point
Rel
Hum
%
Delta-T
°C
Wind Press
QNH
hPa
Press
MSL
hPa
Rain
since 9 am
mm
Dir
 
Spd
km/h
Gust
km/h
Spd
kts
Gust
kts
23/11:30pm 24.1 27.7 23.1 94 0.7 E 9 11 5 6 1012.5 - 3.6
23/11:00pm 24.2 27.8 23.0 93 0.8 E 9 13 5 7 1012.7 - 3.6
23/10:30pm 24.3 27.6 23.2 94 0.7 ESE 11 15 6 8 1012.7 - 3.6
23/10:00pm 24.4 28.1 23.2 93 0.8 ESE 9 13 5 7 1012.7 - 3.6
23/09:30pm 24.7 27.7 23.3 92 1.0 ESE 13 17 7 9 1012.6 - 3.6
23/09:00pm 24.9 28.7 23.5 92 1.0 SE 9 15 5 8 1012.5 1012.3 3.6
23/08:30pm 25.0 28.8 23.4 91 1.1 SE 9 13 5 7 1012.2 - 3.6
23/08:00pm 25.4 27.6 23.2 88 1.5 ESE 17 24 9 13 1011.8 - 3.6
23/07:30pm 25.7 28.7 23.3 86 1.6 E 13 24 7 13 1011.7 - 3.6
23/07:00pm 25.9 28.4 23.2 85 1.8 E 15 19 8 10 1011.4 - 3.6
23/06:30pm 26.3 29.0 23.5 84 1.9 ESE 15 20 8 11 1010.9 - 3.6
23/06:00pm 26.9 29.8 23.8 83 2.1 ESE 15 20 8 11 1010.6 1010.4 3.6
23/05:30pm 27.3 30.7 24.0 82 2.3 ESE 13 19 7 10 1010.4 - 3.6
23/05:00pm 27.5 30.4 23.9 81 2.5 E 15 19 8 10 1010.0 - 3.6
23/04:30pm 27.9 30.9 24.0 79 2.7 ESE 15 22 8 12 1009.8 - 3.6
23/04:00pm 27.8 30.7 23.8 79 2.8 ESE 15 20 8 11 1009.8 - 3.6
23/03:30pm 27.1 31.0 23.6 81 2.4 ESE 9 17 5 9 1009.9 - 3.6
23/03:00pm 27.1 30.7 23.0 78 2.8 ESE 9 15 5 8 1010.2 1010.0 3.6
23/02:30pm 25.9 30.2 22.6 82 2.2 ESE 4 6 2 3 1010.3 - 3.6
23/02:00pm 25.0 28.2 22.4 85 1.7 SE 9 13 5 7 1010.5 - 3.6
23/01:30pm 24.4 27.8 22.7 90 1.1 SSE 9 15 5 8 1010.7 - 3.6
23/01:25pm 24.2 27.6 22.7 91 1.0 SSE 9 15 5 8 1010.6 - 3.6
23/01:12pm 23.9 27.8 22.5 92 0.9 SSW 6 9 3 5 1010.8 - 3.6
23/01:00pm 23.8 27.8 22.7 93 0.7 SSW 6 13 3 7 1011.2 - 3.6
23/12:30pm 23.5 26.7 22.3 93 0.8 ESE 9 11 5 6 1011.1 - 3.6
23/12:00pm 23.2 26.4 22.4 95 0.5 ESE 9 13 5 7 1011.5 1011.3 3.6
23/11:30am 23.0 26.7 22.3 96 0.5 SSE 6 9 3 5 1012.3 - 3.2
23/11:00am 22.8 26.1 21.9 95 0.6 SE 7 11 4 6 1012.5 - 2.6
23/10:30am 22.7 26.0 21.9 95 0.5 ENE 7 15 4 8 1012.5 - 2.0
23/10:00am 22.7 24.5 21.9 95 0.5 NNE 15 20 8 11 1012.7 - 1.2
23/09:30am 22.5 24.8 22.0 97 0.3 NNE 13 22 7 12 1012.3 - 0.8
23/09:00am 22.5 24.8 22.0 97 0.3 NNE 13 19 7 10 1012.2 1012.0 24.8
23/08:30am 22.4 25.8 22.0 98 0.3 NE 7 9 4 5 1012.1 - 23.8
23/08:09am 22.4 25.8 22.0 98 0.3 NE 7 9 4 5 1012.4 - 22.6
23/08:00am 22.5 25.9 22.0 97 0.3 NNE 7 11 4 6 1012.5 - 22.0
23/07:30am 22.6 27.1 22.2 98 0.3 NE 2 4 1 2 1012.1 - 19.8
23/07:28am 22.6 27.1 22.2 98 0.3 NNE 2 4 1 2 1012.1 - 19.8
23/07:19am 22.6 27.0 22.1 97 0.3 SW 2 6 1 3 1012.2 - 19.2
23/07:02am 22.6 26.2 22.1 97 0.3 N 6 9 3 5 1012.2 - 18.4
23/07:00am 22.7 26.3 22.1 96 0.4 N 6 9 3 5 1012.3 - 18.4
23/06:47am 22.8 26.3 22.1 96 0.5 N 7 13 4 7 1012.2 - 17.6
23/06:30am 22.9 26.6 22.2 96 0.5 NNW 6 7 3 4 1012.0 - 17.0
23/06:00am 22.7 26.3 22.0 96 0.5 S 6 15 3 8 1012.4 1012.2 13.6
23/05:30am 23.0 24.7 22.3 96 0.5 SSE 17 24 9 13 1012.0 - 9.6
23/05:04am 23.9 26.8 22.5 92 0.9 S 11 28 6 15 1012.0 - 3.8
23/05:00am 24.1 27.0 22.5 91 1.1 S 11 28 6 15 1012.0 - 3.2
23/04:44am 24.9 29.2 24.3 96 0.4 SSW 9 17 5 9 1011.3 - 1.6
23/04:31am 25.0 29.9 24.4 96 0.4 S 6 13 3 7 1011.5 - 1.2
23/04:30am 24.9 29.8 24.4 97 0.3 SSW 6 13 3 7 1011.5 - 1.2
23/04:00am 24.9 29.7 24.1 95 0.5 SSE 6 9 3 5 1010.8 - 1.2
23/03:30am 24.7 29.2 24.0 96 0.5 SE 7 13 4 7 1010.6 - 1.2
23/03:00am 24.7 29.4 24.0 96 0.5 SE 6 6 3 3 1010.3 1010.1 1.2
23/02:30am 24.8 29.9 24.0 95 0.5 SSE 4 6 2 3 1010.6 - 1.2
23/02:00am 24.8 29.5 23.9 95 0.6 E 6 11 3 6 1011.0 - 1.2
23/01:30am 24.7 29.1 23.8 95 0.6 E 7 11 4 6 1010.6 - 1.2
23/01:00am 24.8 29.2 23.8 94 0.7 E 7 11 4 6 1010.8 - 1.2
23/12:30am 24.8 29.4 23.8 94 0.7 E 6 9 3 5 1010.9 - 1.2
23/12:00am 24.9 29.6 23.9 94 0.7 E 6 9 3 5 1011.1 1010.9 1.2
 
Date/Time
EST
Temp
°C
App
Temp
°C
Dew
Point
Rel
Hum
%
Delta-T
°C
Wind Press
QNH
hPa
Press
MSL
hPa
Rain
since 9 am
mm
Dir
 
Spd
km/h
Gust
km/h
Spd
kts
Gust
kts
22/11:30pm 25.1 29.8 23.9 93 0.8 E 6 9 3 5 1011.5 - 1.2
22/11:00pm 25.3 30.0 23.9 92 1.0 E 6 11 3 6 1011.7 - 1.2
22/10:30pm 25.4 29.9 24.0 92 1.0 E 7 13 4 7 1011.6 - 1.2
22/10:00pm 25.5 29.6 24.0 91 1.0 E 9 13 5 7 1011.8 - 1.2
22/09:30pm 25.7 29.9 24.1 91 1.1 E 9 13 5 7 1012.1 - 1.2
22/09:00pm 25.9 30.5 24.1 90 1.2 E 7 9 4 5 1012.3 1012.1 1.2
22/08:30pm 25.9 30.6 24.3 91 1.1 E 7 11 4 6 1012.0 - 1.2
22/08:00pm 26.0 30.9 24.7 92 0.9 E 7 13 4 7 1011.5 - 1.2
22/07:30pm 26.2 31.5 24.9 92 0.9 E 6 7 3 4 1011.5 - 1.2
22/07:00pm 26.4 31.6 24.8 91 1.1 ENE 6 9 3 5 1011.2 - 1.2
22/06:30pm 26.6 31.2 24.8 90 1.3 E 9 15 5 8 1011.0 - 1.2
22/06:00pm 26.9 30.7 24.7 88 1.5 ESE 13 22 7 12 1010.8 1010.6 1.2
22/05:30pm 27.2 32.1 25.3 89 1.3 ESE 9 19 5 10 1010.8 - 1.2
22/05:00pm 27.4 32.5 24.9 86 1.7 E 7 15 4 8 1010.4 - 1.2
22/04:30pm 27.5 31.0 24.9 86 1.8 E 15 20 8 11 1010.2 - 1.2
22/04:00pm 27.9 30.6 24.2 80 2.6 E 17 24 9 13 1010.3 - 1.2
22/03:34pm 28.6 31.2 24.6 79 2.8 E 19 28 10 15 1010.0 - 1.2
22/03:30pm 28.5 31.0 24.5 79 2.8 E 19 28 10 15 1010.0 - 1.2
22/03:15pm 27.8 31.3 25.4 87 1.7 NE 17 28 9 15 1010.1 - 1.2
22/03:00pm 30.1 33.5 24.7 73 3.8 E 15 26 8 14 1009.9 1009.7 0.0
22/02:30pm 30.8 33.6 24.3 68 4.5 E 17 22 9 12 1009.9 - 0.0
22/02:00pm 31.3 34.0 24.1 65 5.0 E 17 26 9 14 1010.4 - 0.0

Other Formats:

Comma delimited format used in spreadsheet applications
http://www.bom.gov.au/fwo/IDQ60801/IDQ60801.94170.axf

JavaScript Object Notation format (JSON) in row-major order
http://www.bom.gov.au/fwo/IDQ60801/IDQ60801.94170.json